Time;durP1;ratioP1;P1;durP2;ratioP2;P2;SDS_P1;SDS_P2;PMS_P1;PMS_P2;Temp;Humidity;BMP_temperature;BMP_pressure;BME280_temperature;BME280_humidity;BME280_pressure;Samples;Min_cycle;Max_cycle;Signal;HPM_P1;HPM_P2
2021/03/13 00:00:11;;;;;;;3.97;1.60;;;7.60;67.60;;;;;;5019742;28;20482;-75
2021/03/13 00:02:39;;;;;;;6.63;2.00;;;7.60;67.80;;;;;;5021344;28;20289;-74
2021/03/13 00:05:06;;;;;;;6.13;2.00;;;7.60;68.70;;;;;;5033511;28;20452;-73
2021/03/13 00:07:32;;;;;;;5.10;1.50;;;7.70;68.10;;;;;;5017338;28;20454;-75
2021/03/13 00:09:58;;;;;;;7.10;1.57;;;7.70;68.90;;;;;;4999266;28;20583;-74
2021/03/13 00:12:24;;;;;;;8.20;2.10;;;7.70;69.40;;;;;;5017793;28;20453;-74
2021/03/13 00:14:50;;;;;;;6.70;1.33;;;7.60;71.30;;;;;;5025846;28;20784;-73
2021/03/13 00:17:16;;;;;;;3.33;1.23;;;7.50;72.90;;;;;;5015959;28;20222;-74
2021/03/13 00:19:42;;;;;;;8.10;1.37;;;7.40;74.90;;;;;;5015125;28;20413;-76
2021/03/13 00:22:08;;;;;;;3.67;1.30;;;7.30;76.00;;;;;;4997723;28;20765;-74
2021/03/13 00:24:35;;;;;;;3.03;1.30;;;7.20;76.90;;;;;;5014454;28;20400;-73
2021/03/13 00:27:01;;;;;;;1.70;1.50;;;7.10;78.10;;;;;;5013308;28;20430;-73
2021/03/13 00:29:27;;;;;;;4.67;1.07;;;7.00;78.50;;;;;;5017792;28;20464;-75
2021/03/13 00:31:54;;;;;;;5.07;1.23;;;7.00;78.70;;;;;;5015393;28;20436;-75
2021/03/13 00:34:21;;;;;;;5.00;1.30;;;7.00;79.10;;;;;;5016569;28;20209;-74
2021/03/13 00:36:48;;;;;;;3.23;1.20;;;7.00;79.50;;;;;;5003070;28;20445;-75
2021/03/13 00:39:15;;;;;;;3.53;1.60;;;7.00;80.00;;;;;;5023385;28;20780;-76
2021/03/13 00:41:41;;;;;;;3.57;1.23;;;6.90;80.10;;;;;;4980212;28;20422;-76
2021/03/13 00:44:07;;;;;;;8.73;1.80;;;6.90;80.10;;;;;;5013862;28;20509;-76
2021/03/13 00:46:32;;;;;;;4.97;1.07;;;7.00;80.30;;;;;;5013649;28;20978;-77
2021/03/13 00:48:58;;;;;;;5.40;1.37;;;7.00;80.40;;;;;;5000381;28;21176;-77
2021/03/13 00:51:24;;;;;;;8.83;1.67;;;7.00;80.30;;;;;;5015510;28;20201;-75
2021/03/13 00:53:50;;;;;;;3.80;1.60;;;7.00;80.40;;;;;;5014899;28;20468;-76
2021/03/13 00:56:16;;;;;;;3.90;1.40;;;7.00;80.60;;;;;;5031875;28;20421;-75
2021/03/13 00:58:42;;;;;;;4.40;1.47;;;7.00;80.90;;;;;;5013340;28;20720;-74
2021/03/13 01:01:08;;;;;;;5.97;2.17;;;7.00;81.20;;;;;;5007221;28;20475;-75
2021/03/13 01:03:36;;;;;;;5.40;2.03;;;7.00;81.20;;;;;;4998290;28;20418;-74
2021/03/13 01:06:05;;;;;;;7.90;1.73;;;6.90;81.20;;;;;;4993953;28;20472;-75
2021/03/13 01:08:33;;;;;;;9.57;2.00;;;7.00;81.50;;;;;;4994491;28;20437;-76
2021/03/13 01:11:10;;;;;;;4.20;1.40;;;7.00;81.40;;;;;;4994736;28;20436;-75
2021/03/13 01:13:42;;;;;;;4.37;2.33;;;7.00;81.40;;;;;;4991530;28;20454;-76
2021/03/13 01:16:08;;;;;;;7.40;2.07;;;7.10;81.20;;;;;;4994889;28;20427;-73
2021/03/13 01:18:34;;;;;;;7.20;2.10;;;7.10;81.20;;;;;;5013928;28;20548;-72
2021/03/13 01:21:03;;;;;;;3.00;1.60;;;7.10;81.00;;;;;;5029867;28;20463;-72
2021/03/13 01:23:37;;;;;;;3.77;1.97;;;7.10;80.90;;;;;;5011948;28;20436;-73
2021/03/13 01:26:03;;;;;;;4.83;1.77;;;7.10;80.80;;;;;;5012443;28;20449;-73
2021/03/13 01:28:29;;;;;;;5.20;1.63;;;7.10;80.60;;;;;;5012776;28;20159;-73
2021/03/13 01:30:55;;;;;;;3.27;1.63;;;7.20;80.70;;;;;;5012215;28;20489;-73
2021/03/13 01:33:20;;;;;;;5.00;2.07;;;7.20;80.50;;;;;;5010842;28;20191;-74
2021/03/13 01:35:46;;;;;;;9.60;2.57;;;7.20;80.40;;;;;;4994404;28;20187;-73
2021/03/13 01:38:12;;;;;;;8.70;2.30;;;7.20;80.50;;;;;;5010626;28;20178;-72
2021/03/13 01:40:39;;;;;;;9.80;2.50;;;7.20;80.40;;;;;;5009942;28;20433;-72
2021/03/13 01:43:05;;;;;;;7.70;2.27;;;7.20;80.10;;;;;;4994222;28;21180;-72
2021/03/13 01:45:32;;;;;;;5.23;2.57;;;7.20;80.00;;;;;;5012115;28;20536;-72
2021/03/13 01:47:59;;;;;;;12.90;3.40;;;7.20;79.60;;;;;;5011330;28;20586;-73
2021/03/13 01:50:28;;;;;;;4.00;2.03;;;7.30;79.60;;;;;;4993715;28;20422;-73
2021/03/13 01:52:54;;;;;;;5.33;3.17;;;7.30;79.30;;;;;;4992851;28;20452;-73
2021/03/13 01:55:29;;;;;;;3.23;2.50;;;7.30;79.20;;;;;;4993484;28;20417;-72
2021/03/13 01:58:01;;;;;;;3.90;2.40;;;7.30;78.70;;;;;;5011443;28;20406;-73
2021/03/13 02:00:29;;;;;;;3.30;1.90;;;7.30;78.60;;;;;;4993464;28;20433;-73
2021/03/13 02:02:59;;;;;;;3.27;2.17;;;7.30;78.50;;;;;;4993384;28;20521;-73
2021/03/13 02:05:44;;;;;;;5.80;2.90;;;7.30;78.30;;;;;;4993976;28;20883;-71
2021/03/13 02:08:24;;;;;;;4.60;3.23;;;7.30;78.30;;;;;;4993866;28;20441;-73
2021/03/13 02:11:18;;;;;;;7.40;2.17;;;7.30;78.30;;;;;;4993239;28;20689;-73
2021/03/13 02:14:07;;;;;;;3.97;2.20;;;7.30;78.40;;;;;;4994490;28;20456;-73
2021/03/13 02:16:42;;;;;;;2.27;1.40;;;7.30;78.50;;;;;;4993565;28;20445;-73
2021/03/13 02:19:52;;;;;;;2.93;1.60;;;7.30;78.70;;;;;;4993468;28;20449;-73
2021/03/13 02:22:20;;;;;;;2.60;1.63;;;7.30;79.80;;;;;;4993797;28;20405;-72
2021/03/13 02:25:09;;;;;;;8.10;1.70;;;7.30;79.20;;;;;;5011749;28;20418;-72
2021/03/13 02:27:47;;;;;;;6.30;1.70;;;7.30;79.20;;;;;;4993764;28;20991;-72
2021/03/13 02:30:25;;;;;;;2.67;1.57;;;7.30;79.40;;;;;;4994051;28;20483;-72
2021/03/13 02:33:12;;;;;;;1.63;1.30;;;7.20;79.50;;;;;;4993168;28;20454;-73
2021/03/13 02:36:14;;;;;;;2.37;1.17;;;7.20;79.70;;;;;;4992179;28;20994;-72
2021/03/13 02:38:52;;;;;;;6.80;0.90;;;7.20;79.80;;;;;;4996937;28;20414;-72
2021/03/13 02:41:30;;;;;;;2.23;1.20;;;7.20;79.90;;;;;;4997149;28;20444;-72
2021/03/13 02:44:04;;;;;;;2.43;1.00;;;7.20;79.80;;;;;;5014670;28;20413;-73
2021/03/13 02:46:40;;;;;;;1.53;0.97;;;7.20;79.60;;;;;;4981347;28;20986;-73
2021/03/13 02:49:08;;;;;;;2.40;1.17;;;7.10;78.40;;;;;;4997296;28;20425;-73
2021/03/13 02:51:35;;;;;;;1.20;0.77;;;7.10;78.50;;;;;;4997077;28;20414;-71
2021/03/13 02:54:01;;;;;;;1.30;1.00;;;7.10;78.50;;;;;;4996846;28;20477;-72
2021/03/13 02:56:28;;;;;;;1.80;0.83;;;7.10;78.40;;;;;;4996766;28;20464;-72
2021/03/13 02:58:57;;;;;;;1.50;0.70;;;7.10;78.40;;;;;;4996462;28;20195;-73
2021/03/13 03:01:30;;;;;;;2.13;0.80;;;7.10;78.20;;;;;;4997533;28;20775;-72
2021/03/13 03:04:00;;;;;;;1.50;0.90;;;7.10;78.20;;;;;;4997079;28;20456;-72
2021/03/13 03:06:34;;;;;;;1.93;0.70;;;7.10;78.30;;;;;;4998979;28;20515;-72
2021/03/13 03:09:03;;;;;;;2.50;0.87;;;7.10;78.20;;;;;;4997573;28;20446;-72
2021/03/13 03:11:36;;;;;;;1.87;0.93;;;7.10;78.10;;;;;;4999381;28;20974;-73
2021/03/13 03:14:04;;;;;;;2.13;1.00;;;7.20;78.00;;;;;;5004382;28;20454;-74
2021/03/13 03:16:31;;;;;;;1.30;0.80;;;7.20;77.90;;;;;;5005949;28;20445;-72
2021/03/13 03:19:01;;;;;;;1.30;0.70;;;7.20;77.60;;;;;;5023536;28;20406;-71
2021/03/13 03:21:32;;;;;;;1.20;0.60;;;7.20;77.50;;;;;;5005242;28;20514;-72
2021/03/13 03:24:01;;;;;;;2.27;0.77;;;7.20;77.50;;;;;;5004799;28;20872;-71
2021/03/13 03:26:27;;;;;;;2.30;0.83;;;7.20;77.40;;;;;;5014124;28;20433;-72
2021/03/13 03:28:53;;;;;;;3.07;0.90;;;7.20;77.50;;;;;;4995403;28;20425;-73
2021/03/13 03:31:22;;;;;;;1.30;0.70;;;7.20;77.50;;;;;;5013895;28;20637;-73
2021/03/13 03:33:49;;;;;;;1.10;0.60;;;7.20;77.40;;;;;;5012970;28;20461;-73
2021/03/13 03:36:15;;;;;;;1.03;0.70;;;7.20;77.10;;;;;;5013638;28;20429;-72
2021/03/13 03:38:45;;;;;;;1.63;0.90;;;7.20;76.90;;;;;;4995555;28;20410;-74
2021/03/13 03:41:17;;;;;;;1.00;0.60;;;7.20;76.90;;;;;;4996390;28;20963;-72
2021/03/13 03:43:50;;;;;;;1.60;0.60;;;7.20;76.80;;;;;;4996166;28;20454;-73
2021/03/13 03:46:22;;;;;;;1.23;0.60;;;7.20;76.90;;;;;;4979695;28;20537;-72
2021/03/13 03:48:50;;;;;;;1.57;0.70;;;7.20;76.80;;;;;;4994947;28;20445;-72
2021/03/13 03:51:25;;;;;;;0.90;0.60;;;7.30;76.60;;;;;;4996027;28;20418;-73
2021/03/13 03:54:02;;;;;;;2.43;0.70;;;7.30;76.50;;;;;;4995543;28;20461;-73
2021/03/13 03:56:28;;;;;;;2.70;0.60;;;7.30;76.30;;;;;;5013486;28;20457;-73
2021/03/13 03:58:54;;;;;;;1.80;0.80;;;7.30;76.30;;;;;;4995067;28;20429;-73
2021/03/13 04:01:23;;;;;;;1.53;0.70;;;7.30;76.30;;;;;;5013659;28;20250;-73
2021/03/13 04:03:54;;;;;;;1.10;0.60;;;7.30;76.40;;;;;;4995587;28;20422;-73
2021/03/13 04:06:21;;;;;;;1.10;0.60;;;7.40;76.60;;;;;;4996102;28;20958;-72
2021/03/13 04:08:51;;;;;;;1.20;0.70;;;7.40;76.60;;;;;;4996952;28;20497;-72
2021/03/13 04:11:19;;;;;;;1.67;0.53;;;7.40;76.40;;;;;;5031783;28;20410;-72
2021/03/13 04:13:48;;;;;;;1.77;0.67;;;7.40;76.80;;;;;;5015814;28;20503;-72
2021/03/13 04:16:16;;;;;;;1.20;0.60;;;7.40;76.70;;;;;;4997636;28;20434;-73
2021/03/13 04:18:42;;;;;;;1.90;0.63;;;7.40;76.70;;;;;;5012688;28;20456;-73
2021/03/13 04:21:08;;;;;;;3.87;1.17;;;7.40;77.10;;;;;;5013636;28;20476;-73
2021/03/13 04:23:36;;;;;;;0.90;0.50;;;7.40;77.30;;;;;;5018169;28;20418;-72
2021/03/13 04:26:03;;;;;;;1.03;0.60;;;7.50;78.20;;;;;;5033418;28;20258;-72
2021/03/13 04:28:29;;;;;;;1.87;0.80;;;7.50;77.40;;;;;;5033378;28;20492;-73
2021/03/13 04:30:55;;;;;;;1.37;0.63;;;7.50;77.80;;;;;;5013266;28;20430;-72
2021/03/13 04:33:22;;;;;;;0.80;0.50;;;7.50;78.20;;;;;;5012536;28;20457;-73
2021/03/13 04:35:50;;;;;;;2.50;0.70;;;7.50;78.70;;;;;;5012489;28;20430;-73
2021/03/13 04:38:21;;;;;;;1.20;0.63;;;7.50;78.90;;;;;;5012519;28;20456;-72
2021/03/13 04:40:49;;;;;;;1.33;0.60;;;7.50;79.20;;;;;;5012481;28;20907;-72
2021/03/13 04:43:17;;;;;;;1.40;0.70;;;7.50;79.40;;;;;;5012719;28;20414;-71
2021/03/13 04:45:44;;;;;;;1.67;0.53;;;7.50;79.80;;;;;;5012260;28;20525;-73
2021/03/13 04:48:12;;;;;;;2.50;0.80;;;7.50;79.90;;;;;;5011976;28;20429;-73
2021/03/13 04:50:38;;;;;;;1.10;0.70;;;7.50;80.00;;;;;;5011384;28;20402;-73
2021/03/13 04:53:04;;;;;;;2.40;1.33;;;7.50;80.20;;;;;;5012246;28;20504;-74
2021/03/13 04:55:30;;;;;;;2.30;0.60;;;7.50;80.30;;;;;;5011557;28;20425;-73
2021/03/13 04:57:56;;;;;;;1.30;0.63;;;7.50;80.70;;;;;;5011450;28;20414;-73
2021/03/13 05:00:23;;;;;;;0.93;0.60;;;7.50;80.50;;;;;;4993777;28;20174;-73
2021/03/13 05:02:48;;;;;;;1.00;0.50;;;7.50;80.10;;;;;;5012468;28;20195;-74
2021/03/13 05:05:14;;;;;;;2.93;0.90;;;7.60;80.10;;;;;;5011913;28;20421;-73
2021/03/13 05:07:40;;;;;;;1.47;0.80;;;7.60;79.80;;;;;;5012257;28;20202;-73
2021/03/13 05:10:08;;;;;;;2.27;0.63;;;7.60;79.70;;;;;;5011621;28;20792;-74
2021/03/13 05:12:34;;;;;;;0.90;0.60;;;7.60;79.70;;;;;;5012402;28;20191;-73
2021/03/13 05:15:00;;;;;;;0.90;0.60;;;7.60;79.70;;;;;;5012013;28;20978;-72
2021/03/13 05:17:26;;;;;;;1.57;0.60;;;7.70;79.90;;;;;;4994043;28;20871;-72
2021/03/13 05:19:51;;;;;;;1.37;0.60;;;7.70;79.50;;;;;;4993893;28;20449;-73
2021/03/13 05:22:17;;;;;;;2.80;0.77;;;7.70;79.50;;;;;;5011580;28;20170;-73
2021/03/13 05:24:43;;;;;;;3.10;0.70;;;7.70;79.50;;;;;;5013545;28;20167;-72
2021/03/13 05:27:11;;;;;;;3.03;0.73;;;7.70;79.40;;;;;;4995455;28;20198;-72
2021/03/13 05:29:37;;;;;;;2.20;0.60;;;7.70;79.50;;;;;;5012252;28;20784;-73
2021/03/13 05:32:03;;;;;;;1.93;0.80;;;7.70;79.60;;;;;;5011918;28;20190;-72
2021/03/13 05:34:28;;;;;;;1.50;0.67;;;7.70;79.40;;;;;;5011552;28;20203;-73
2021/03/13 05:36:54;;;;;;;1.00;0.60;;;7.80;79.40;;;;;;4994197;28;20441;-73
2021/03/13 05:39:20;;;;;;;0.80;0.50;;;7.80;78.60;;;;;;4994005;28;20549;-73
2021/03/13 05:41:47;;;;;;;2.20;0.50;;;7.80;78.40;;;;;;5011821;28;20167;-71
2021/03/13 05:44:13;;;;;;;1.27;0.70;;;7.90;78.50;;;;;;4993834;28;20592;-72
2021/03/13 05:46:44;;;;;;;2.80;0.83;;;7.90;78.10;;;;;;5011487;28;20906;-73
2021/03/13 05:49:11;;;;;;;0.90;0.50;;;8.00;78.00;;;;;;5011281;28;20425;-73
2021/03/13 05:51:42;;;;;;;2.07;0.83;;;8.00;78.20;;;;;;4994093;28;20803;-73
2021/03/13 05:54:08;;;;;;;3.80;1.13;;;8.00;78.40;;;;;;4993582;28;20516;-73
2021/03/13 05:56:34;;;;;;;1.00;0.70;;;8.00;78.40;;;;;;5011066;28;20433;-72
2021/03/13 05:59:02;;;;;;;0.80;0.60;;;8.00;78.40;;;;;;5014081;28;20472;-73
2021/03/13 06:01:29;;;;;;;1.00;0.57;;;8.00;78.40;;;;;;4993508;28;20434;-73
2021/03/13 06:03:56;;;;;;;1.47;0.87;;;8.00;78.00;;;;;;4993935;28;20465;-72
2021/03/13 06:06:23;;;;;;;2.80;0.60;;;8.10;77.80;;;;;;5011412;28;20477;-72
2021/03/13 06:08:50;;;;;;;1.43;0.50;;;8.10;77.50;;;;;;5013247;28;20422;-73
2021/03/13 06:11:20;;;;;;;2.30;0.80;;;8.10;77.20;;;;;;5014886;28;20490;-72
2021/03/13 06:13:46;;;;;;;1.70;0.67;;;8.20;76.80;;;;;;5015400;28;20487;-73
2021/03/13 06:16:12;;;;;;;2.90;0.60;;;8.20;76.50;;;;;;4996996;28;20434;-74
2021/03/13 06:18:52;;;;;;;0.90;0.60;;;8.20;75.80;;;;;;5014685;28;20433;-72
2021/03/13 06:21:25;;;;;;;3.10;1.13;;;8.30;75.60;;;;;;5014596;28;20406;-72
2021/03/13 06:23:59;;;;;;;2.07;0.60;;;8.30;75.50;;;;;;4997340;28;20422;-72
2021/03/13 06:26:27;;;;;;;0.90;0.50;;;8.30;75.50;;;;;;5014566;28;20552;-71
2021/03/13 06:28:53;;;;;;;2.37;0.50;;;8.30;75.40;;;;;;4997330;28;20414;-71
2021/03/13 06:31:26;;;;;;;0.90;0.67;;;8.40;75.40;;;;;;5014156;28;20429;-72
2021/03/13 06:33:55;;;;;;;2.30;0.70;;;8.40;75.20;;;;;;5014618;28;20503;-72
2021/03/13 06:36:25;;;;;;;2.73;0.70;;;8.40;74.70;;;;;;4996702;28;20465;-72
2021/03/13 06:38:52;;;;;;;3.10;1.00;;;8.40;74.10;;;;;;4996446;28;20480;-72
2021/03/13 06:41:22;;;;;;;2.57;1.03;;;8.40;74.00;;;;;;4996765;28;20452;-73
2021/03/13 06:43:56;;;;;;;1.10;0.70;;;8.40;74.00;;;;;;5014566;28;20422;-73
2021/03/13 06:46:29;;;;;;;1.27;0.70;;;8.50;74.10;;;;;;5013851;28;20433;-71
2021/03/13 06:48:57;;;;;;;3.43;1.33;;;8.50;74.00;;;;;;5014291;28;21003;-72
2021/03/13 06:51:36;;;;;;;1.83;0.50;;;8.50;73.80;;;;;;5015075;28;20930;-72
2021/03/13 06:54:08;;;;;;;1.33;0.50;;;8.60;73.60;;;;;;5015650;28;20536;-73
2021/03/13 06:56:56;;;;;;;1.10;0.60;;;8.60;73.10;;;;;;5014773;28;20433;-72
2021/03/13 06:59:32;;;;;;;1.60;0.60;;;8.70;73.20;;;;;;4996966;28;20517;-73
2021/03/13 07:02:04;;;;;;;1.47;0.60;;;8.70;74.00;;;;;;5014177;28;20422;-72
2021/03/13 07:04:32;;;;;;;1.10;0.57;;;8.70;73.20;;;;;;5014582;28;20414;-72
2021/03/13 07:06:58;;;;;;;1.40;0.60;;;8.80;73.30;;;;;;5013617;28;20438;-72
2021/03/13 07:09:53;;;;;;;1.10;0.70;;;8.80;73.40;;;;;;5013890;28;20494;-73
2021/03/13 07:12:23;;;;;;;1.30;0.70;;;8.80;73.50;;;;;;4996029;28;20418;-72
2021/03/13 07:14:49;;;;;;;3.13;0.70;;;8.80;73.60;;;;;;5014273;28;20481;-72
2021/03/13 07:17:16;;;;;;;1.00;0.60;;;8.80;73.60;;;;;;5012849;28;20426;-71
2021/03/13 07:19:42;;;;;;;1.00;0.60;;;8.80;73.40;;;;;;4994805;28;20418;-72
2021/03/13 07:22:10;;;;;;;1.83;0.63;;;8.80;73.70;;;;;;5013589;28;20425;-72
2021/03/13 07:24:36;;;;;;;0.90;0.50;;;8.80;73.60;;;;;;5013999;28;20533;-73
2021/03/13 07:27:04;;;;;;;1.63;0.90;;;8.90;73.50;;;;;;4995871;28;20943;-72
2021/03/13 07:29:31;;;;;;;1.57;0.60;;;8.90;73.00;;;;;;5013236;28;20457;-72
2021/03/13 07:32:02;;;;;;;1.00;0.50;;;9.00;72.80;;;;;;5013337;28;20730;-72
2021/03/13 07:34:36;;;;;;;1.10;0.60;;;9.00;72.70;;;;;;5013339;28;20460;-72
2021/03/13 07:37:03;;;;;;;1.43;0.60;;;9.10;72.30;;;;;;5013603;28;20430;-72
2021/03/13 07:39:49;;;;;;;1.40;0.50;;;9.00;72.10;;;;;;4995556;28;20988;-72
2021/03/13 07:42:19;;;;;;;2.17;1.00;;;9.00;72.30;;;;;;5014036;28;20417;-72
2021/03/13 07:44:48;;;;;;;3.90;1.30;;;9.00;72.50;;;;;;5016617;28;20399;-73
2021/03/13 07:47:16;;;;;;;1.50;0.67;;;8.90;72.70;;;;;;5016570;28;20445;-72
2021/03/13 07:49:42;;;;;;;4.03;1.10;;;8.90;73.00;;;;;;5016595;28;20406;-73
2021/03/13 07:52:11;;;;;;;2.77;0.90;;;8.80;73.90;;;;;;5013366;28;20402;-72
2021/03/13 07:54:40;;;;;;;1.70;1.20;;;8.80;74.90;;;;;;5013635;28;20524;-73
2021/03/13 07:57:07;;;;;;;2.37;1.10;;;8.60;76.00;;;;;;5013258;28;20429;-74
2021/03/13 07:59:42;;;;;;;2.20;0.90;;;7.90;75.60;;;;;;5013089;28;20653;-73
2021/03/13 08:02:08;;;;;;;1.83;1.00;;;7.10;77.20;;;;;;5012762;28;20414;-73
2021/03/13 08:04:42;;;;;;;1.83;0.97;;;6.50;80.20;;;;;;5012751;28;20429;-74
2021/03/13 08:07:08;;;;;;;2.37;0.70;;;6.20;82.70;;;;;;5012991;28;20193;-73
2021/03/13 08:09:43;;;;;;;2.00;0.83;;;6.00;84.50;;;;;;5013173;28;20402;-74
2021/03/13 08:12:09;;;;;;;2.13;0.70;;;5.90;85.80;;;;;;5014318;28;20562;-73
2021/03/13 08:14:35;;;;;;;1.33;0.53;;;5.90;86.20;;;;;;5019709;28;20461;-72
2021/03/13 08:17:09;;;;;;;1.80;0.80;;;5.90;85.50;;;;;;5014795;28;20450;-72
2021/03/13 08:19:39;;;;;;;2.40;0.60;;;5.90;85.00;;;;;;5004790;28;20422;-72
2021/03/13 08:22:08;;;;;;;1.47;0.80;;;6.00;84.50;;;;;;4997290;28;20425;-72
2021/03/13 08:24:53;;;;;;;1.50;0.93;;;6.20;83.60;;;;;;4995898;28;20449;-73
2021/03/13 08:27:38;;;;;;;7.70;1.10;;;6.30;82.40;;;;;;4994898;28;20446;-73
2021/03/13 08:30:21;;;;;;;2.43;0.90;;;6.50;81.30;;;;;;4979177;28;20421;-71
2021/03/13 08:33:06;;;;;;;1.33;0.60;;;6.70;80.50;;;;;;5012893;28;20460;-72
2021/03/13 08:35:46;;;;;;;3.40;1.30;;;6.90;79.60;;;;;;5023091;28;20406;-72
2021/03/13 08:38:13;;;;;;;2.23;0.90;;;7.00;78.80;;;;;;5009887;28;20424;-71
2021/03/13 08:40:50;;;;;;;1.23;0.70;;;7.20;78.70;;;;;;5003788;28;20438;-71
2021/03/13 08:43:42;;;;;;;2.13;0.60;;;7.30;78.60;;;;;;4995370;28;20421;-71
2021/03/13 08:46:46;;;;;;;1.00;0.70;;;7.40;77.70;;;;;;4977508;28;20438;-70
2021/03/13 08:49:22;;;;;;;3.03;0.83;;;7.50;77.40;;;;;;5017647;28;20501;-70
2021/03/13 08:51:48;;;;;;;2.07;1.23;;;7.60;77.30;;;;;;5032585;28;20478;-71
2021/03/13 08:54:37;;;;;;;2.87;0.97;;;7.70;76.60;;;;;;5032356;28;20520;-70
2021/03/13 08:57:09;;;;;;;8.60;2.37;;;7.70;75.80;;;;;;5014696;28;20519;-71
2021/03/13 08:59:36;;;;;;;1.40;0.60;;;7.80;76.00;;;;;;5020506;28;20412;-72
2021/03/13 09:02:17;;;;;;;4.43;1.23;;;7.90;75.10;;;;;;5012225;28;20444;-70
2021/03/13 09:04:52;;;;;;;2.33;0.73;;;8.00;74.30;;;;;;4993531;28;20415;-71
2021/03/13 09:07:19;;;;;;;2.07;1.00;;;8.00;72.20;;;;;;4993664;28;20441;-71
2021/03/13 09:09:46;;;;;;;3.20;1.00;;;8.10;71.70;;;;;;4993814;28;20419;-71
2021/03/13 09:12:13;;;;;;;1.73;0.80;;;8.10;71.20;;;;;;4993949;28;20407;-72
2021/03/13 09:14:50;;;;;;;3.30;0.90;;;8.20;70.80;;;;;;4975873;28;20466;-70
2021/03/13 09:17:18;;;;;;;3.73;1.07;;;8.20;69.60;;;;;;4991738;28;20431;-71
2021/03/13 09:19:46;;;;;;;9.10;1.40;;;8.30;70.40;;;;;;4992061;28;20402;-71
2021/03/13 09:22:16;;;;;;;2.27;0.90;;;8.30;70.20;;;;;;5010555;28;20425;-72
2021/03/13 09:24:43;;;;;;;2.57;0.97;;;8.40;69.50;;;;;;4993557;28;20974;-71
2021/03/13 09:27:09;;;;;;;4.37;1.47;;;8.40;68.10;;;;;;5012008;28;20449;-72
2021/03/13 09:29:42;;;;;;;4.60;1.67;;;8.40;68.00;;;;;;5010783;28;20418;-70
2021/03/13 09:32:14;;;;;;;3.73;1.73;;;8.40;67.50;;;;;;5008085;28;20178;-71
2021/03/13 09:34:45;;;;;;;6.13;1.23;;;8.40;67.30;;;;;;5017416;28;20519;-72
2021/03/13 09:37:24;;;;;;;2.87;1.07;;;8.40;67.40;;;;;;5023460;28;20436;-72
2021/03/13 09:40:03;;;;;;;6.23;1.37;;;8.40;67.40;;;;;;5025621;28;20769;-72
2021/03/13 09:42:29;;;;;;;5.60;1.23;;;8.40;67.10;;;;;;5008695;28;20419;-71
2021/03/13 09:44:58;;;;;;;8.33;0.97;;;8.40;66.50;;;;;;5010994;28;20402;-71
2021/03/13 09:47:48;;;;;;;4.13;1.00;;;8.30;64.60;;;;;;5011201;28;20449;-70
2021/03/13 09:50:17;;;;;;;4.53;1.30;;;8.40;64.40;;;;;;4992127;28;20473;-71
2021/03/13 09:52:47;;;;;;;2.60;1.17;;;8.40;63.80;;;;;;4992738;28;20451;-71
2021/03/13 09:55:14;;;;;;;2.20;1.10;;;8.40;62.40;;;;;;4992855;28;20438;-72
2021/03/13 09:57:46;;;;;;;7.17;1.40;;;8.50;61.40;;;;;;4973878;28;20434;-70
2021/03/13 10:00:20;;;;;;;8.83;1.67;;;8.60;61.00;;;;;;4974028;28;21247;-71
2021/03/13 10:02:48;;;;;;;9.53;2.67;;;8.70;59.40;;;;;;4974146;28;20460;-72
2021/03/13 10:05:15;;;;;;;4.57;1.43;;;8.70;58.80;;;;;;4991134;28;20419;-71
2021/03/13 10:07:44;;;;;;;2.30;1.30;;;8.70;58.60;;;;;;4992108;28;20435;-74
2021/03/13 10:10:15;;;;;;;3.57;1.50;;;8.70;58.80;;;;;;4974013;28;20431;-74
2021/03/13 10:12:46;;;;;;;4.37;1.70;;;8.70;58.70;;;;;;4991736;28;20418;-72
2021/03/13 10:15:19;;;;;;;7.07;1.30;;;8.70;58.90;;;;;;5009568;28;20406;-73
2021/03/13 10:17:57;;;;;;;7.57;1.83;;;8.70;58.70;;;;;;4992021;28;20448;-72
2021/03/13 10:20:34;;;;;;;5.67;1.30;;;8.90;58.60;;;;;;5012113;28;20981;-74
2021/03/13 10:23:18;;;;;;;7.47;1.53;;;9.20;58.00;;;;;;5010050;28;20425;-72
2021/03/13 10:25:54;;;;;;;3.57;1.60;;;9.40;57.30;;;;;;5009665;28;20492;-72
2021/03/13 10:28:20;;;;;;;7.10;1.53;;;9.70;56.50;;;;;;4976817;28;20493;-74
2021/03/13 10:30:46;;;;;;;6.30;2.90;;;10.10;56.10;;;;;;5009806;28;20425;-73
2021/03/13 10:33:13;;;;;;;6.40;1.30;;;10.40;53.90;;;;;;5009970;28;20457;-73
2021/03/13 10:35:39;;;;;;;6.57;1.70;;;10.50;53.60;;;;;;4990889;28;20409;-75
2021/03/13 10:38:25;;;;;;;4.43;1.70;;;10.60;53.40;;;;;;5011026;28;20745;-74
2021/03/13 10:40:52;;;;;;;4.73;1.30;;;10.80;52.50;;;;;;5010907;28;20422;-74
2021/03/13 10:43:21;;;;;;;6.70;1.50;;;10.80;52.50;;;;;;4993763;28;20529;-75
2021/03/13 10:45:59;;;;;;;2.83;1.33;;;10.50;52.30;;;;;;4987956;28;20442;-73
2021/03/13 10:48:30;;;;;;;7.43;1.37;;;10.30;52.50;;;;;;5008054;28;20417;-72
2021/03/13 10:50:57;;;;;;;6.20;1.23;;;10.30;53.30;;;;;;5009937;28;20426;-72
2021/03/13 10:53:25;;;;;;;5.90;1.77;;;10.30;53.50;;;;;;5009284;28;20501;-73
2021/03/13 10:55:56;;;;;;;3.80;1.40;;;10.30;53.50;;;;;;5015577;28;20965;-74
2021/03/13 10:58:26;;;;;;;5.70;1.83;;;10.20;52.40;;;;;;5010437;28;20456;-73
2021/03/13 11:00:53;;;;;;;5.43;1.47;;;10.40;52.70;;;;;;5018949;28;20915;-74
2021/03/13 11:03:19;;;;;;;6.00;1.50;;;10.70;51.10;;;;;;4994752;28;20421;-75
2021/03/13 11:05:49;;;;;;;4.20;1.50;;;10.90;51.10;;;;;;5014145;28;20528;-73
2021/03/13 11:08:15;;;;;;;11.00;1.77;;;11.10;51.00;;;;;;4996977;28;20497;-73
2021/03/13 11:10:41;;;;;;;4.57;1.70;;;11.10;50.20;;;;;;5013778;28;20444;-74
2021/03/13 11:13:07;;;;;;;9.30;1.63;;;10.90;50.50;;;;;;5013794;28;20451;-74
2021/03/13 11:15:33;;;;;;;26.30;2.00;;;10.40;52.60;;;;;;5019421;28;20875;-73
2021/03/13 11:17:58;;;;;;;7.30;2.00;;;10.10;53.70;;;;;;5014794;28;20524;-74
2021/03/13 11:20:24;;;;;;;4.80;1.33;;;9.90;54.80;;;;;;5013832;28;20323;-73
2021/03/13 11:22:50;;;;;;;6.03;1.50;;;9.80;54.90;;;;;;5014697;28;20471;-71
2021/03/13 11:25:16;;;;;;;9.10;2.33;;;9.90;55.50;;;;;;5014394;28;20436;-73
2021/03/13 11:27:43;;;;;;;7.00;2.00;;;10.20;55.30;;;;;;5013723;28;20194;-73
2021/03/13 11:30:09;;;;;;;6.40;1.73;;;10.50;54.50;;;;;;4997184;28;20436;-73
2021/03/13 11:32:37;;;;;;;9.33;2.17;;;10.80;51.40;;;;;;5025165;28;20753;-74
2021/03/13 11:35:04;;;;;;;3.90;1.30;;;11.00;51.10;;;;;;5033989;28;20410;-74
2021/03/13 11:37:30;;;;;;;5.50;2.20;;;11.00;50.00;;;;;;5016127;28;20436;-73
2021/03/13 11:39:56;;;;;;;12.33;5.47;;;10.90;50.00;;;;;;5033622;28;20432;-75
2021/03/13 11:42:27;;;;;;;7.33;3.00;;;10.90;50.20;;;;;;5034277;28;20571;-74
2021/03/13 11:44:54;;;;;;;10.20;1.80;;;10.80;50.10;;;;;;5033815;28;20459;-73
2021/03/13 11:47:20;;;;;;;10.83;2.10;;;10.70;50.10;;;;;;5034185;28;20444;-73
2021/03/13 11:49:46;;;;;;;7.13;1.70;;;10.60;50.40;;;;;;5034456;28;20416;-72
2021/03/13 11:52:12;;;;;;;11.90;1.90;;;10.60;50.20;;;;;;5035980;28;20409;-73
2021/03/13 11:54:37;;;;;;;8.23;1.63;;;10.70;49.80;;;;;;5017264;28;20198;-74
2021/03/13 11:57:03;;;;;;;7.13;2.17;;;10.60;49.20;;;;;;4996387;28;20222;-74
2021/03/13 11:59:29;;;;;;;7.00;2.10;;;10.60;49.00;;;;;;5013762;28;20541;-72
2021/03/13 12:01:55;;;;;;;9.00;2.60;;;10.60;49.40;;;;;;5014814;28;20419;-73
2021/03/13 12:04:20;;;;;;;5.83;1.47;;;10.60;49.90;;;;;;5014794;28;20210;-73
2021/03/13 12:06:46;;;;;;;4.07;1.33;;;10.50;50.60;;;;;;5012632;28;20199;-73
2021/03/13 12:09:11;;;;;;;7.13;1.90;;;10.20;54.70;;;;;;4995511;28;20187;-73
2021/03/13 12:11:37;;;;;;;7.67;2.00;;;9.60;59.80;;;;;;4979220;28;20230;-74
2021/03/13 12:14:03;;;;;;;7.83;1.90;;;9.20;65.00;;;;;;5012813;28;20577;-73
2021/03/13 12:16:29;;;;;;;11.07;1.97;;;8.90;67.60;;;;;;5012084;28;20191;-73
2021/03/13 12:18:56;;;;;;;10.47;2.80;;;8.80;69.70;;;;;;5013011;28;20576;-74
2021/03/13 12:21:22;;;;;;;9.47;2.10;;;8.90;69.90;;;;;;4980954;28;20179;-74
2021/03/13 12:23:48;;;;;;;18.03;3.27;;;9.00;69.60;;;;;;5016586;28;20436;-73
2021/03/13 12:26:13;;;;;;;11.90;2.80;;;9.10;68.80;;;;;;5014995;28;20202;-73
2021/03/13 12:28:39;;;;;;;17.73;3.13;;;9.30;67.20;;;;;;4991468;28;20175;-72
2021/03/13 12:31:05;;;;;;;7.03;2.20;;;9.50;66.60;;;;;;4994041;28;20221;-73
2021/03/13 12:33:30;;;;;;;8.63;2.10;;;9.70;66.20;;;;;;5012122;28;20256;-72
2021/03/13 12:35:56;;;;;;;13.00;2.00;;;9.90;64.20;;;;;;5011875;28;20783;-74
2021/03/13 12:38:22;;;;;;;15.13;2.70;;;10.00;61.80;;;;;;5010705;28;20167;-72
2021/03/13 12:40:49;;;;;;;8.20;2.60;;;10.00;60.60;;;;;;4993777;28;20199;-72
2021/03/13 12:43:14;;;;;;;9.43;1.67;;;10.00;60.80;;;;;;5011986;28;21115;-72
2021/03/13 12:45:40;;;;;;;12.60;3.90;;;10.00;59.90;;;;;;4993872;28;20410;-73
2021/03/13 12:48:06;;;;;;;22.63;2.90;;;9.80;60.10;;;;;;5011465;28;20187;-75
2021/03/13 12:50:32;;;;;;;11.73;2.50;;;9.70;61.70;;;;;;4993334;28;20266;-73
2021/03/13 12:52:57;;;;;;;5.70;2.30;;;9.60;62.40;;;;;;5020050;28;20915;-73
2021/03/13 12:55:23;;;;;;;9.97;2.03;;;9.50;63.70;;;;;;5027671;28;20647;-73
2021/03/13 12:57:49;;;;;;;8.13;3.73;;;9.40;62.40;;;;;;5022337;28;20169;-73
2021/03/13 13:00:15;;;;;;;10.53;2.30;;;9.30;64.00;;;;;;5001580;28;20267;-73
2021/03/13 13:02:41;;;;;;;13.47;2.50;;;8.90;64.90;;;;;;5024094;28;20173;-74
2021/03/13 13:05:07;;;;;;;10.40;2.33;;;8.50;65.40;;;;;;5034344;28;20481;-73
2021/03/13 13:07:35;;;;;;;20.13;3.10;;;8.10;66.40;;;;;;5037139;28;20559;-72